sensor_id;sensor_type;location;lat;lon;timestamp;P1;durP1;ratioP1;P2;durP2;ratioP2
13408;SDS011;6775;49.574;11.170;2023-04-23T00:02:21;2.70;;;2.50;;
13408;SDS011;6775;49.574;11.170;2023-04-23T00:04:52;3.33;;;2.40;;
13408;SDS011;6775;49.574;11.170;2023-04-23T00:07:20;3.47;;;2.67;;
13408;SDS011;6775;49.574;11.170;2023-04-23T00:09:49;2.20;;;2.00;;
13408;SDS011;6775;49.574;11.170;2023-04-23T00:12:18;2.43;;;2.07;;
13408;SDS011;6775;49.574;11.170;2023-04-23T00:14:47;2.53;;;2.33;;
13408;SDS011;6775;49.574;11.170;2023-04-23T00:17:16;2.80;;;2.60;;
13408;SDS011;6775;49.574;11.170;2023-04-23T00:19:44;3.17;;;2.30;;
13408;SDS011;6775;49.574;11.170;2023-04-23T00:22:14;2.43;;;2.20;;
13408;SDS011;6775;49.574;11.170;2023-04-23T00:24:43;2.87;;;2.30;;
13408;SDS011;6775;49.574;11.170;2023-04-23T00:27:10;2.37;;;2.17;;
13408;SDS011;6775;49.574;11.170;2023-04-23T00:29:38;2.77;;;2.57;;
13408;SDS011;6775;49.574;11.170;2023-04-23T00:32:07;2.60;;;2.40;;
13408;SDS011;6775;49.574;11.170;2023-04-23T00:34:36;3.97;;;2.57;;
13408;SDS011;6775;49.574;11.170;2023-04-23T00:37:04;3.20;;;2.90;;
13408;SDS011;6775;49.574;11.170;2023-04-23T00:39:33;3.90;;;2.67;;
13408;SDS011;6775;49.574;11.170;2023-04-23T00:42:02;4.27;;;3.03;;
13408;SDS011;6775;49.574;11.170;2023-04-23T00:44:36;2.77;;;2.13;;
13408;SDS011;6775;49.574;11.170;2023-04-23T00:47:05;2.97;;;2.67;;
13408;SDS011;6775;49.574;11.170;2023-04-23T00:49:33;3.50;;;2.73;;
13408;SDS011;6775;49.574;11.170;2023-04-23T00:52:04;3.10;;;2.80;;
13408;SDS011;6775;49.574;11.170;2023-04-23T00:54:32;4.47;;;3.00;;
13408;SDS011;6775;49.574;11.170;2023-04-23T00:57:00;3.17;;;2.80;;
13408;SDS011;6775;49.574;11.170;2023-04-23T00:59:28;3.70;;;3.03;;
13408;SDS011;6775;49.574;11.170;2023-04-23T01:01:57;4.20;;;2.57;;
13408;SDS011;6775;49.574;11.170;2023-04-23T01:04:26;3.13;;;2.53;;
13408;SDS011;6775;49.574;11.170;2023-04-23T01:06:57;2.70;;;2.43;;
13408;SDS011;6775;49.574;11.170;2023-04-23T01:09:25;2.63;;;2.43;;
13408;SDS011;6775;49.574;11.170;2023-04-23T01:11:53;3.57;;;2.50;;
13408;SDS011;6775;49.574;11.170;2023-04-23T01:14:23;2.50;;;2.30;;
13408;SDS011;6775;49.574;11.170;2023-04-23T01:16:50;2.70;;;2.30;;
13408;SDS011;6775;49.574;11.170;2023-04-23T01:19:19;4.07;;;3.00;;
13408;SDS011;6775;49.574;11.170;2023-04-23T01:21:46;2.70;;;2.23;;
13408;SDS011;6775;49.574;11.170;2023-04-23T01:24:17;4.53;;;2.43;;
13408;SDS011;6775;49.574;11.170;2023-04-23T01:26:45;3.10;;;2.57;;
13408;SDS011;6775;49.574;11.170;2023-04-23T01:29:13;4.00;;;2.67;;
13408;SDS011;6775;49.574;11.170;2023-04-23T01:31:41;3.33;;;2.40;;
13408;SDS011;6775;49.574;11.170;2023-04-23T01:34:09;2.80;;;2.53;;
13408;SDS011;6775;49.574;11.170;2023-04-23T01:36:38;3.97;;;3.20;;
13408;SDS011;6775;49.574;11.170;2023-04-23T01:39:07;3.07;;;2.67;;
13408;SDS011;6775;49.574;11.170;2023-04-23T01:41:37;2.67;;;2.47;;
13408;SDS011;6775;49.574;11.170;2023-04-23T01:44:05;4.77;;;3.03;;
13408;SDS011;6775;49.574;11.170;2023-04-23T01:46:33;3.20;;;2.90;;
13408;SDS011;6775;49.574;11.170;2023-04-23T01:49:01;3.07;;;2.87;;
13408;SDS011;6775;49.574;11.170;2023-04-23T01:51:29;3.00;;;2.80;;
13408;SDS011;6775;49.574;11.170;2023-04-23T01:53:57;3.10;;;2.80;;
13408;SDS011;6775;49.574;11.170;2023-04-23T01:56:26;2.97;;;2.77;;
13408;SDS011;6775;49.574;11.170;2023-04-23T01:58:57;3.37;;;2.63;;
13408;SDS011;6775;49.574;11.170;2023-04-23T02:01:24;3.50;;;2.93;;
13408;SDS011;6775;49.574;11.170;2023-04-23T02:03:52;3.77;;;3.33;;
13408;SDS011;6775;49.574;11.170;2023-04-23T02:06:20;3.80;;;3.30;;
13408;SDS011;6775;49.574;11.170;2023-04-23T02:08:48;5.53;;;3.40;;
13408;SDS011;6775;49.574;11.170;2023-04-23T02:11:16;4.43;;;3.40;;
13408;SDS011;6775;49.574;11.170;2023-04-23T02:13:44;3.87;;;3.47;;
13408;SDS011;6775;49.574;11.170;2023-04-23T02:16:13;4.97;;;3.50;;
13408;SDS011;6775;49.574;11.170;2023-04-23T02:18:41;5.10;;;3.57;;
13408;SDS011;6775;49.574;11.170;2023-04-23T02:21:09;3.87;;;3.20;;
13408;SDS011;6775;49.574;11.170;2023-04-23T02:23:38;3.80;;;3.30;;
13408;SDS011;6775;49.574;11.170;2023-04-23T02:26:06;3.63;;;3.30;;
13408;SDS011;6775;49.574;11.170;2023-04-23T02:28:34;3.50;;;3.00;;
13408;SDS011;6775;49.574;11.170;2023-04-23T02:31:01;4.53;;;3.43;;
13408;SDS011;6775;49.574;11.170;2023-04-23T02:33:31;3.50;;;3.20;;
13408;SDS011;6775;49.574;11.170;2023-04-23T02:35:58;4.37;;;3.33;;
13408;SDS011;6775;49.574;11.170;2023-04-23T02:38:26;3.47;;;3.17;;
13408;SDS011;6775;49.574;11.170;2023-04-23T02:40:54;3.43;;;3.13;;
13408;SDS011;6775;49.574;11.170;2023-04-23T02:43:22;3.23;;;2.80;;
13408;SDS011;6775;49.574;11.170;2023-04-23T02:45:50;3.57;;;3.03;;
13408;SDS011;6775;49.574;11.170;2023-04-23T02:48:17;3.33;;;3.00;;
13408;SDS011;6775;49.574;11.170;2023-04-23T02:50:47;3.17;;;2.87;;
13408;SDS011;6775;49.574;11.170;2023-04-23T02:53:15;3.23;;;2.80;;
13408;SDS011;6775;49.574;11.170;2023-04-23T02:55:43;3.10;;;2.80;;
13408;SDS011;6775;49.574;11.170;2023-04-23T02:58:11;2.97;;;2.67;;
13408;SDS011;6775;49.574;11.170;2023-04-23T03:00:39;4.43;;;2.90;;
13408;SDS011;6775;49.574;11.170;2023-04-23T03:03:07;3.40;;;3.03;;
13408;SDS011;6775;49.574;11.170;2023-04-23T03:05:37;3.03;;;2.80;;
13408;SDS011;6775;49.574;11.170;2023-04-23T03:08:07;3.87;;;3.00;;
13408;SDS011;6775;49.574;11.170;2023-04-23T03:10:34;3.30;;;2.50;;
13408;SDS011;6775;49.574;11.170;2023-04-23T03:13:02;3.73;;;2.93;;
13408;SDS011;6775;49.574;11.170;2023-04-23T03:15:30;3.13;;;2.83;;
13408;SDS011;6775;49.574;11.170;2023-04-23T03:17:58;3.17;;;2.63;;
13408;SDS011;6775;49.574;11.170;2023-04-23T03:20:26;3.70;;;3.17;;
13408;SDS011;6775;49.574;11.170;2023-04-23T03:22:54;2.53;;;2.33;;
13408;SDS011;6775;49.574;11.170;2023-04-23T03:25:23;2.93;;;2.57;;
13408;SDS011;6775;49.574;11.170;2023-04-23T03:27:51;2.93;;;2.60;;
13408;SDS011;6775;49.574;11.170;2023-04-23T03:30:19;2.90;;;2.40;;
13408;SDS011;6775;49.574;11.170;2023-04-23T03:32:48;3.27;;;2.30;;
13408;SDS011;6775;49.574;11.170;2023-04-23T03:35:16;2.97;;;2.47;;
13408;SDS011;6775;49.574;11.170;2023-04-23T03:37:44;2.50;;;2.30;;
13408;SDS011;6775;49.574;11.170;2023-04-23T03:40:12;3.00;;;2.70;;
13408;SDS011;6775;49.574;11.170;2023-04-23T03:42:41;3.03;;;2.67;;
13408;SDS011;6775;49.574;11.170;2023-04-23T03:45:09;4.80;;;2.80;;
13408;SDS011;6775;49.574;11.170;2023-04-23T03:47:38;3.97;;;2.73;;
13408;SDS011;6775;49.574;11.170;2023-04-23T03:50:06;2.80;;;2.50;;
13408;SDS011;6775;49.574;11.170;2023-04-23T03:52:35;4.50;;;2.60;;
13408;SDS011;6775;49.574;11.170;2023-04-23T03:55:03;2.87;;;2.50;;
13408;SDS011;6775;49.574;11.170;2023-04-23T03:57:31;3.40;;;2.20;;
13408;SDS011;6775;49.574;11.170;2023-04-23T04:00:00;2.60;;;2.40;;
13408;SDS011;6775;49.574;11.170;2023-04-23T04:02:28;3.30;;;2.53;;
13408;SDS011;6775;49.574;11.170;2023-04-23T04:04:56;4.93;;;2.90;;
13408;SDS011;6775;49.574;11.170;2023-04-23T04:07:24;3.67;;;2.97;;
13408;SDS011;6775;49.574;11.170;2023-04-23T04:09:53;3.07;;;2.77;;
13408;SDS011;6775;49.574;11.170;2023-04-23T04:12:21;3.40;;;3.00;;
13408;SDS011;6775;49.574;11.170;2023-04-23T04:14:49;3.13;;;2.80;;
13408;SDS011;6775;49.574;11.170;2023-04-23T04:17:18;4.90;;;3.13;;
13408;SDS011;6775;49.574;11.170;2023-04-23T04:19:46;4.43;;;3.20;;
13408;SDS011;6775;49.574;11.170;2023-04-23T04:22:13;3.17;;;2.87;;
13408;SDS011;6775;49.574;11.170;2023-04-23T04:24:41;2.87;;;2.50;;
13408;SDS011;6775;49.574;11.170;2023-04-23T04:27:12;3.37;;;3.07;;
13408;SDS011;6775;49.574;11.170;2023-04-23T04:29:40;4.00;;;3.53;;
13408;SDS011;6775;49.574;11.170;2023-04-23T04:32:08;4.27;;;3.80;;
13408;SDS011;6775;49.574;11.170;2023-04-23T04:34:38;4.03;;;3.63;;
13408;SDS011;6775;49.574;11.170;2023-04-23T04:37:06;5.50;;;4.00;;
13408;SDS011;6775;49.574;11.170;2023-04-23T04:39:35;4.97;;;4.47;;
13408;SDS011;6775;49.574;11.170;2023-04-23T04:42:03;4.17;;;3.77;;
13408;SDS011;6775;49.574;11.170;2023-04-23T04:44:32;5.70;;;4.00;;
13408;SDS011;6775;49.574;11.170;2023-04-23T04:47:02;3.93;;;3.63;;
13408;SDS011;6775;49.574;11.170;2023-04-23T04:49:30;4.37;;;3.67;;
13408;SDS011;6775;49.574;11.170;2023-04-23T04:51:59;3.90;;;3.50;;
13408;SDS011;6775;49.574;11.170;2023-04-23T04:54:27;3.07;;;2.83;;
13408;SDS011;6775;49.574;11.170;2023-04-23T04:56:55;3.13;;;2.83;;
13408;SDS011;6775;49.574;11.170;2023-04-23T04:59:23;2.87;;;2.53;;
13408;SDS011;6775;49.574;11.170;2023-04-23T05:01:50;3.50;;;3.20;;
13408;SDS011;6775;49.574;11.170;2023-04-23T05:04:18;4.10;;;3.17;;
13408;SDS011;6775;49.574;11.170;2023-04-23T05:06:46;3.70;;;3.17;;
13408;SDS011;6775;49.574;11.170;2023-04-23T05:09:15;4.10;;;3.07;;
13408;SDS011;6775;49.574;11.170;2023-04-23T05:11:43;5.80;;;3.10;;
13408;SDS011;6775;49.574;11.170;2023-04-23T05:14:11;3.23;;;2.93;;
13408;SDS011;6775;49.574;11.170;2023-04-23T05:16:39;3.73;;;3.33;;
13408;SDS011;6775;49.574;11.170;2023-04-23T05:19:06;3.53;;;3.23;;
13408;SDS011;6775;49.574;11.170;2023-04-23T05:21:34;3.07;;;2.77;;
13408;SDS011;6775;49.574;11.170;2023-04-23T05:24:02;3.13;;;2.80;;
13408;SDS011;6775;49.574;11.170;2023-04-23T05:26:32;4.07;;;3.27;;
13408;SDS011;6775;49.574;11.170;2023-04-23T05:28:59;3.33;;;2.83;;
13408;SDS011;6775;49.574;11.170;2023-04-23T05:31:27;3.20;;;2.90;;
13408;SDS011;6775;49.574;11.170;2023-04-23T05:33:55;2.97;;;2.77;;
13408;SDS011;6775;49.574;11.170;2023-04-23T05:36:23;3.17;;;2.70;;
13408;SDS011;6775;49.574;11.170;2023-04-23T05:38:51;2.83;;;2.33;;
13408;SDS011;6775;49.574;11.170;2023-04-23T05:41:18;9.07;;;8.10;;
13408;SDS011;6775;49.574;11.170;2023-04-23T05:43:48;3.90;;;3.50;;
13408;SDS011;6775;49.574;11.170;2023-04-23T05:46:15;4.20;;;3.80;;
13408;SDS011;6775;49.574;11.170;2023-04-23T05:48:43;3.33;;;3.03;;
13408;SDS011;6775;49.574;11.170;2023-04-23T05:51:11;4.87;;;3.20;;
13408;SDS011;6775;49.574;11.170;2023-04-23T05:53:39;4.17;;;3.43;;
13408;SDS011;6775;49.574;11.170;2023-04-23T05:56:07;4.17;;;3.57;;
13408;SDS011;6775;49.574;11.170;2023-04-23T05:58:35;4.17;;;3.17;;
13408;SDS011;6775;49.574;11.170;2023-04-23T06:01:05;3.53;;;3.10;;
13408;SDS011;6775;49.574;11.170;2023-04-23T06:03:33;3.13;;;2.83;;
13408;SDS011;6775;49.574;11.170;2023-04-23T06:06:03;3.43;;;3.00;;
13408;SDS011;6775;49.574;11.170;2023-04-23T06:08:31;3.90;;;3.50;;
13408;SDS011;6775;49.574;11.170;2023-04-23T06:10:59;3.77;;;3.37;;
13408;SDS011;6775;49.574;11.170;2023-04-23T06:13:27;3.47;;;3.00;;
13408;SDS011;6775;49.574;11.170;2023-04-23T06:15:56;4.10;;;3.10;;
13408;SDS011;6775;49.574;11.170;2023-04-23T06:18:25;2.63;;;2.30;;
13408;SDS011;6775;49.574;11.170;2023-04-23T06:20:53;3.20;;;2.90;;
13408;SDS011;6775;49.574;11.170;2023-04-23T06:23:22;3.27;;;2.90;;
13408;SDS011;6775;49.574;11.170;2023-04-23T06:25:49;3.60;;;2.73;;
13408;SDS011;6775;49.574;11.170;2023-04-23T06:28:17;3.23;;;2.93;;
13408;SDS011;6775;49.574;11.170;2023-04-23T06:30:45;2.70;;;2.50;;
13408;SDS011;6775;49.574;11.170;2023-04-23T06:33:13;3.70;;;3.27;;
13408;SDS011;6775;49.574;11.170;2023-04-23T06:35:42;3.30;;;3.00;;
13408;SDS011;6775;49.574;11.170;2023-04-23T06:38:12;3.73;;;3.37;;
13408;SDS011;6775;49.574;11.170;2023-04-23T06:40:40;4.43;;;3.07;;
13408;SDS011;6775;49.574;11.170;2023-04-23T06:43:08;2.83;;;2.50;;
13408;SDS011;6775;49.574;11.170;2023-04-23T06:45:35;2.60;;;2.30;;
13408;SDS011;6775;49.574;11.170;2023-04-23T06:48:03;3.93;;;2.43;;
13408;SDS011;6775;49.574;11.170;2023-04-23T06:50:31;3.00;;;2.70;;
13408;SDS011;6775;49.574;11.170;2023-04-23T06:53:00;2.87;;;2.43;;
13408;SDS011;6775;49.574;11.170;2023-04-23T06:55:28;3.37;;;2.87;;
13408;SDS011;6775;49.574;11.170;2023-04-23T06:57:56;3.40;;;3.10;;
13408;SDS011;6775;49.574;11.170;2023-04-23T07:00:24;3.87;;;2.63;;
13408;SDS011;6775;49.574;11.170;2023-04-23T07:02:52;2.53;;;2.33;;
13408;SDS011;6775;49.574;11.170;2023-04-23T07:05:20;2.53;;;2.33;;
13408;SDS011;6775;49.574;11.170;2023-04-23T07:07:47;3.83;;;3.20;;
13408;SDS011;6775;49.574;11.170;2023-04-23T07:10:17;3.30;;;2.87;;
13408;SDS011;6775;49.574;11.170;2023-04-23T07:12:45;3.30;;;3.00;;
13408;SDS011;6775;49.574;11.170;2023-04-23T07:15:12;4.10;;;2.90;;
13408;SDS011;6775;49.574;11.170;2023-04-23T07:17:40;2.60;;;2.40;;
13408;SDS011;6775;49.574;11.170;2023-04-23T07:20:08;3.00;;;2.70;;
13408;SDS011;6775;49.574;11.170;2023-04-23T07:22:37;3.47;;;3.00;;
13408;SDS011;6775;49.574;11.170;2023-04-23T07:25:05;2.90;;;2.60;;
13408;SDS011;6775;49.574;11.170;2023-04-23T07:27:35;4.20;;;2.47;;
13408;SDS011;6775;49.574;11.170;2023-04-23T07:30:03;3.73;;;2.90;;
13408;SDS011;6775;49.574;11.170;2023-04-23T07:32:32;4.43;;;3.23;;
13408;SDS011;6775;49.574;11.170;2023-04-23T07:35:00;4.37;;;3.07;;
13408;SDS011;6775;49.574;11.170;2023-04-23T07:37:27;3.83;;;2.93;;
13408;SDS011;6775;49.574;11.170;2023-04-23T07:39:55;3.80;;;3.33;;
13408;SDS011;6775;49.574;11.170;2023-04-23T07:42:23;3.43;;;3.13;;
13408;SDS011;6775;49.574;11.170;2023-04-23T07:44:52;5.43;;;3.20;;
13408;SDS011;6775;49.574;11.170;2023-04-23T07:47:20;3.27;;;2.97;;
13408;SDS011;6775;49.574;11.170;2023-04-23T07:49:48;3.27;;;2.73;;
13408;SDS011;6775;49.574;11.170;2023-04-23T07:52:16;3.50;;;3.00;;
13408;SDS011;6775;49.574;11.170;2023-04-23T07:54:44;3.63;;;2.80;;
13408;SDS011;6775;49.574;11.170;2023-04-23T07:57:12;4.63;;;3.33;;
13408;SDS011;6775;49.574;11.170;2023-04-23T07:59:40;4.10;;;2.60;;
13408;SDS011;6775;49.574;11.170;2023-04-23T08:02:09;4.53;;;3.33;;
13408;SDS011;6775;49.574;11.170;2023-04-23T08:04:37;4.67;;;2.83;;
13408;SDS011;6775;49.574;11.170;2023-04-23T08:07:05;3.50;;;2.50;;
13408;SDS011;6775;49.574;11.170;2023-04-23T08:09:33;3.00;;;2.70;;
13408;SDS011;6775;49.574;11.170;2023-04-23T08:12:01;2.47;;;2.23;;
13408;SDS011;6775;49.574;11.170;2023-04-23T08:14:29;2.50;;;2.30;;
13408;SDS011;6775;49.574;11.170;2023-04-23T08:16:57;2.10;;;1.90;;
13408;SDS011;6775;49.574;11.170;2023-04-23T08:19:26;2.20;;;1.73;;
13408;SDS011;6775;49.574;11.170;2023-04-23T08:21:57;3.03;;;2.30;;
13408;SDS011;6775;49.574;11.170;2023-04-23T08:24:25;2.97;;;2.10;;
13408;SDS011;6775;49.574;11.170;2023-04-23T08:26:53;1.90;;;1.80;;
13408;SDS011;6775;49.574;11.170;2023-04-23T08:29:20;1.67;;;1.57;;
13408;SDS011;6775;49.574;11.170;2023-04-23T08:31:48;1.80;;;1.70;;
13408;SDS011;6775;49.574;11.170;2023-04-23T08:34:16;2.07;;;1.80;;
13408;SDS011;6775;49.574;11.170;2023-04-23T08:36:45;1.80;;;1.70;;
13408;SDS011;6775;49.574;11.170;2023-04-23T08:39:14;1.80;;;1.70;;
13408;SDS011;6775;49.574;11.170;2023-04-23T08:41:42;1.50;;;1.40;;
13408;SDS011;6775;49.574;11.170;2023-04-23T08:44:16;1.87;;;1.73;;
13408;SDS011;6775;49.574;11.170;2023-04-23T08:46:45;2.30;;;1.90;;
13408;SDS011;6775;49.574;11.170;2023-04-23T08:49:14;2.00;;;1.80;;
13408;SDS011;6775;49.574;11.170;2023-04-23T08:51:47;2.10;;;2.00;;
13408;SDS011;6775;49.574;11.170;2023-04-23T08:54:18;1.50;;;1.40;;
13408;SDS011;6775;49.574;11.170;2023-04-23T08:56:48;1.83;;;1.73;;
13408;SDS011;6775;49.574;11.170;2023-04-23T08:59:17;1.77;;;1.67;;
13408;SDS011;6775;49.574;11.170;2023-04-23T09:01:48;1.80;;;1.70;;
13408;SDS011;6775;49.574;11.170;2023-04-23T09:04:16;2.27;;;2.07;;
13408;SDS011;6775;49.574;11.170;2023-04-23T09:06:46;2.30;;;2.10;;
13408;SDS011;6775;49.574;11.170;2023-04-23T09:09:15;3.10;;;2.67;;
13408;SDS011;6775;49.574;11.170;2023-04-23T09:11:43;2.83;;;2.43;;
13408;SDS011;6775;49.574;11.170;2023-04-23T09:14:11;3.07;;;2.70;;
13408;SDS011;6775;49.574;11.170;2023-04-23T09:16:40;2.40;;;2.20;;
13408;SDS011;6775;49.574;11.170;2023-04-23T09:19:08;2.50;;;2.30;;
13408;SDS011;6775;49.574;11.170;2023-04-23T09:21:37;2.37;;;2.17;;
13408;SDS011;6775;49.574;11.170;2023-04-23T09:24:07;2.27;;;1.70;;
13408;SDS011;6775;49.574;11.170;2023-04-23T09:26:42;1.97;;;1.77;;
13408;SDS011;6775;49.574;11.170;2023-04-23T09:29:12;1.87;;;1.70;;
13408;SDS011;6775;49.574;11.170;2023-04-23T09:31:42;1.60;;;1.50;;
13408;SDS011;6775;49.574;11.170;2023-04-23T09:34:10;1.60;;;1.43;;
13408;SDS011;6775;49.574;11.170;2023-04-23T09:36:39;2.10;;;1.57;;
13408;SDS011;6775;49.574;11.170;2023-04-23T09:39:11;1.57;;;1.43;;
13408;SDS011;6775;49.574;11.170;2023-04-23T09:41:39;2.30;;;1.30;;
13408;SDS011;6775;49.574;11.170;2023-04-23T09:44:07;1.50;;;1.40;;
13408;SDS011;6775;49.574;11.170;2023-04-23T09:46:38;1.50;;;0.90;;
13408;SDS011;6775;49.574;11.170;2023-04-23T09:49:07;1.10;;;1.00;;
13408;SDS011;6775;49.574;11.170;2023-04-23T09:51:36;1.23;;;1.13;;
13408;SDS011;6775;49.574;11.170;2023-04-23T09:54:09;1.10;;;1.00;;
13408;SDS011;6775;49.574;11.170;2023-04-23T09:56:39;1.07;;;0.97;;
13408;SDS011;6775;49.574;11.170;2023-04-23T09:59:20;0.80;;;0.80;;
13408;SDS011;6775;49.574;11.170;2023-04-23T10:02:09;1.33;;;0.87;;
13408;SDS011;6775;49.574;11.170;2023-04-23T10:04:37;0.80;;;0.80;;
13408;SDS011;6775;49.574;11.170;2023-04-23T10:07:07;0.60;;;0.60;;
13408;SDS011;6775;49.574;11.170;2023-04-23T10:09:43;0.87;;;0.80;;
13408;SDS011;6775;49.574;11.170;2023-04-23T10:12:11;0.77;;;0.77;;
13408;SDS011;6775;49.574;11.170;2023-04-23T10:14:42;0.70;;;0.70;;
13408;SDS011;6775;49.574;11.170;2023-04-23T10:17:14;0.80;;;0.80;;
13408;SDS011;6775;49.574;11.170;2023-04-23T10:19:42;1.10;;;0.63;;
13408;SDS011;6775;49.574;11.170;2023-04-23T10:22:11;1.00;;;0.70;;
13408;SDS011;6775;49.574;11.170;2023-04-23T10:24:47;0.63;;;0.63;;
13408;SDS011;6775;49.574;11.170;2023-04-23T10:27:21;1.23;;;1.00;;
13408;SDS011;6775;49.574;11.170;2023-04-23T10:30:12;1.47;;;0.90;;
13408;SDS011;6775;49.574;11.170;2023-04-23T10:32:40;1.20;;;1.00;;
13408;SDS011;6775;49.574;11.170;2023-04-23T10:35:10;1.10;;;1.00;;
13408;SDS011;6775;49.574;11.170;2023-04-23T10:37:38;1.83;;;1.00;;
13408;SDS011;6775;49.574;11.170;2023-04-23T10:40:09;1.37;;;1.10;;
13408;SDS011;6775;49.574;11.170;2023-04-23T10:42:39;2.40;;;1.10;;
13408;SDS011;6775;49.574;11.170;2023-04-23T10:45:14;1.00;;;0.90;;
13408;SDS011;6775;49.574;11.170;2023-04-23T10:47:46;1.60;;;1.30;;
13408;SDS011;6775;49.574;11.170;2023-04-23T10:50:18;8.03;;;5.10;;
13408;SDS011;6775;49.574;11.170;2023-04-23T10:52:48;3.23;;;2.17;;
13408;SDS011;6775;49.574;11.170;2023-04-23T10:55:21;4.23;;;3.10;;
13408;SDS011;6775;49.574;11.170;2023-04-23T10:57:56;7.17;;;5.17;;
13408;SDS011;6775;49.574;11.170;2023-04-23T11:00:29;1.47;;;1.37;;
13408;SDS011;6775;49.574;11.170;2023-04-23T11:05:56;1.30;;;1.20;;
13408;SDS011;6775;49.574;11.170;2023-04-23T11:08:27;1.90;;;1.70;;
13408;SDS011;6775;49.574;11.170;2023-04-23T11:10:58;1.37;;;1.27;;
13408;SDS011;6775;49.574;11.170;2023-04-23T11:13:28;2.10;;;1.47;;
13408;SDS011;6775;49.574;11.170;2023-04-23T11:16:11;1.40;;;1.30;;
13408;SDS011;6775;49.574;11.170;2023-04-23T11:24:22;1.50;;;1.40;;
13408;SDS011;6775;49.574;11.170;2023-04-23T11:26:51;2.30;;;1.40;;
13408;SDS011;6775;49.574;11.170;2023-04-23T11:29:20;1.87;;;1.23;;
13408;SDS011;6775;49.574;11.170;2023-04-23T11:31:49;1.63;;;1.33;;
13408;SDS011;6775;49.574;11.170;2023-04-23T11:34:28;1.50;;;1.40;;
13408;SDS011;6775;49.574;11.170;2023-04-23T11:36:57;1.20;;;1.10;;
13408;SDS011;6775;49.574;11.170;2023-04-23T11:39:25;1.77;;;1.00;;
13408;SDS011;6775;49.574;11.170;2023-04-23T11:41:55;1.20;;;1.10;;
13408;SDS011;6775;49.574;11.170;2023-04-23T11:44:24;1.37;;;1.07;;
13408;SDS011;6775;49.574;11.170;2023-04-23T11:46:52;1.33;;;1.00;;
13408;SDS011;6775;49.574;11.170;2023-04-23T11:49:20;1.03;;;0.97;;
13408;SDS011;6775;49.574;11.170;2023-04-23T11:51:48;1.33;;;1.00;;
13408;SDS011;6775;49.574;11.170;2023-04-23T11:54:15;1.10;;;1.00;;
13408;SDS011;6775;49.574;11.170;2023-04-23T11:56:45;0.90;;;0.90;;
13408;SDS011;6775;49.574;11.170;2023-04-23T11:59:14;1.03;;;0.90;;
13408;SDS011;6775;49.574;11.170;2023-04-23T12:01:42;1.37;;;1.10;;
13408;SDS011;6775;49.574;11.170;2023-04-23T12:04:12;1.10;;;1.00;;
13408;SDS011;6775;49.574;11.170;2023-04-23T12:06:42;1.70;;;1.10;;
13408;SDS011;6775;49.574;11.170;2023-04-23T12:09:12;1.10;;;1.00;;
13408;SDS011;6775;49.574;11.170;2023-04-23T12:11:41;1.30;;;1.10;;
13408;SDS011;6775;49.574;11.170;2023-04-23T12:14:11;1.27;;;1.10;;
13408;SDS011;6775;49.574;11.170;2023-04-23T12:16:42;1.27;;;1.17;;
13408;SDS011;6775;49.574;11.170;2023-04-23T12:19:12;1.27;;;0.80;;
13408;SDS011;6775;49.574;11.170;2023-04-23T12:21:47;1.03;;;0.90;;
13408;SDS011;6775;49.574;11.170;2023-04-23T12:24:20;0.80;;;0.80;;
13408;SDS011;6775;49.574;11.170;2023-04-23T12:26:49;1.00;;;0.90;;
13408;SDS011;6775;49.574;11.170;2023-04-23T12:29:19;1.80;;;0.80;;
13408;SDS011;6775;49.574;11.170;2023-04-23T12:31:49;0.67;;;0.67;;
13408;SDS011;6775;49.574;11.170;2023-04-23T12:34:18;1.00;;;0.90;;
13408;SDS011;6775;49.574;11.170;2023-04-23T12:36:47;0.60;;;0.60;;
13408;SDS011;6775;49.574;11.170;2023-04-23T12:39:20;1.53;;;1.00;;
13408;SDS011;6775;49.574;11.170;2023-04-23T12:41:50;1.07;;;0.83;;
13408;SDS011;6775;49.574;11.170;2023-04-23T12:44:18;0.80;;;0.80;;
13408;SDS011;6775;49.574;11.170;2023-04-23T12:46:52;1.83;;;1.00;;
13408;SDS011;6775;49.574;11.170;2023-04-23T12:49:23;1.00;;;0.87;;
13408;SDS011;6775;49.574;11.170;2023-04-23T12:51:52;1.93;;;0.90;;
13408;SDS011;6775;49.574;11.170;2023-04-23T12:54:23;1.10;;;0.70;;
13408;SDS011;6775;49.574;11.170;2023-04-23T12:56:51;0.80;;;0.80;;
13408;SDS011;6775;49.574;11.170;2023-04-23T12:59:19;1.37;;;0.80;;
13408;SDS011;6775;49.574;11.170;2023-04-23T13:01:47;0.80;;;0.70;;
13408;SDS011;6775;49.574;11.170;2023-04-23T13:04:18;0.90;;;0.63;;
13408;SDS011;6775;49.574;11.170;2023-04-23T13:06:46;1.10;;;0.70;;
13408;SDS011;6775;49.574;11.170;2023-04-23T13:09:15;0.70;;;0.70;;
13408;SDS011;6775;49.574;11.170;2023-04-23T13:11:42;0.70;;;0.70;;
13408;SDS011;6775;49.574;11.170;2023-04-23T13:14:12;1.10;;;0.67;;
13408;SDS011;6775;49.574;11.170;2023-04-23T13:16:39;0.90;;;0.80;;
13408;SDS011;6775;49.574;11.170;2023-04-23T13:19:09;0.80;;;0.80;;
13408;SDS011;6775;49.574;11.170;2023-04-23T13:21:38;0.80;;;0.80;;
13408;SDS011;6775;49.574;11.170;2023-04-23T13:24:06;0.80;;;0.70;;
13408;SDS011;6775;49.574;11.170;2023-04-23T13:26:33;0.80;;;0.80;;
13408;SDS011;6775;49.574;11.170;2023-04-23T13:29:02;0.83;;;0.77;;
13408;SDS011;6775;49.574;11.170;2023-04-23T13:31:30;1.10;;;0.80;;
13408;SDS011;6775;49.574;11.170;2023-04-23T13:33:58;1.17;;;0.80;;
13408;SDS011;6775;49.574;11.170;2023-04-23T13:36:27;0.97;;;0.80;;
13408;SDS011;6775;49.574;11.170;2023-04-23T13:38:55;0.73;;;0.73;;
13408;SDS011;6775;49.574;11.170;2023-04-23T13:41:23;0.70;;;0.70;;
13408;SDS011;6775;49.574;11.170;2023-04-23T13:43:51;0.70;;;0.70;;
13408;SDS011;6775;49.574;11.170;2023-04-23T13:46:19;0.70;;;0.70;;
13408;SDS011;6775;49.574;11.170;2023-04-23T13:48:47;0.60;;;0.60;;
13408;SDS011;6775;49.574;11.170;2023-04-23T13:51:15;0.60;;;0.60;;
13408;SDS011;6775;49.574;11.170;2023-04-23T13:54:01;0.90;;;0.60;;
13408;SDS011;6775;49.574;11.170;2023-04-23T13:56:30;0.50;;;0.50;;
13408;SDS011;6775;49.574;11.170;2023-04-23T13:58:58;0.50;;;0.50;;
13408;SDS011;6775;49.574;11.170;2023-04-23T14:01:43;1.40;;;0.70;;
13408;SDS011;6775;49.574;11.170;2023-04-23T14:04:12;0.80;;;0.80;;
13408;SDS011;6775;49.574;11.170;2023-04-23T14:06:40;0.70;;;0.70;;
13408;SDS011;6775;49.574;11.170;2023-04-23T14:09:09;2.37;;;1.27;;
13408;SDS011;6775;49.574;11.170;2023-04-23T14:11:37;2.83;;;2.13;;
13408;SDS011;6775;49.574;11.170;2023-04-23T14:14:06;1.67;;;1.10;;
13408;SDS011;6775;49.574;11.170;2023-04-23T14:16:34;1.63;;;1.20;;
13408;SDS011;6775;49.574;11.170;2023-04-23T14:19:02;2.13;;;1.20;;
13408;SDS011;6775;49.574;11.170;2023-04-23T14:21:29;1.30;;;0.90;;
13408;SDS011;6775;49.574;11.170;2023-04-23T14:23:59;1.77;;;1.10;;
13408;SDS011;6775;49.574;11.170;2023-04-23T14:26:33;1.30;;;1.00;;
13408;SDS011;6775;49.574;11.170;2023-04-23T14:29:17;1.40;;;0.70;;
13408;SDS011;6775;49.574;11.170;2023-04-23T14:31:50;1.20;;;0.83;;
13408;SDS011;6775;49.574;11.170;2023-04-23T14:34:18;0.60;;;0.60;;
13408;SDS011;6775;49.574;11.170;2023-04-23T14:36:46;1.03;;;0.70;;
13408;SDS011;6775;49.574;11.170;2023-04-23T14:39:14;1.00;;;0.60;;
13408;SDS011;6775;49.574;11.170;2023-04-23T14:41:44;0.90;;;0.90;;
13408;SDS011;6775;49.574;11.170;2023-04-23T14:44:12;0.80;;;0.60;;
13408;SDS011;6775;49.574;11.170;2023-04-23T14:46:39;0.63;;;0.63;;
13408;SDS011;6775;49.574;11.170;2023-04-23T14:49:07;0.60;;;0.60;;
13408;SDS011;6775;49.574;11.170;2023-04-23T14:51:35;0.60;;;0.60;;
13408;SDS011;6775;49.574;11.170;2023-04-23T14:54:03;0.87;;;0.67;;
13408;SDS011;6775;49.574;11.170;2023-04-23T14:56:31;0.60;;;0.60;;
13408;SDS011;6775;49.574;11.170;2023-04-23T14:59:00;0.70;;;0.70;;
13408;SDS011;6775;49.574;11.170;2023-04-23T15:01:28;0.70;;;0.70;;
13408;SDS011;6775;49.574;11.170;2023-04-23T15:03:56;0.90;;;0.90;;
13408;SDS011;6775;49.574;11.170;2023-04-23T15:06:24;0.80;;;0.50;;
13408;SDS011;6775;49.574;11.170;2023-04-23T15:08:52;0.70;;;0.70;;